sensor_id;sensor_type;location;lat;lon;timestamp;P1;durP1;ratioP1;P2;durP2;ratioP2
63492;SDS011;49638;47.526;10.028;2024-03-08T00:00:33;24.08;;;10.27;;
63492;SDS011;49638;47.526;10.028;2024-03-08T00:03:33;25.55;;;10.35;;
63492;SDS011;49638;47.526;10.028;2024-03-08T00:06:34;26.58;;;10.07;;
63492;SDS011;49638;47.526;10.028;2024-03-08T00:09:34;25.45;;;10.35;;
63492;SDS011;49638;47.526;10.028;2024-03-08T00:12:35;22.55;;;9.52;;
63492;SDS011;49638;47.526;10.028;2024-03-08T00:15:35;25.38;;;10.75;;
63492;SDS011;49638;47.526;10.028;2024-03-08T00:18:35;24.10;;;9.68;;
63492;SDS011;49638;47.526;10.028;2024-03-08T00:21:36;24.90;;;10.32;;
63492;SDS011;49638;47.526;10.028;2024-03-08T00:24:36;22.63;;;8.73;;
63492;SDS011;49638;47.526;10.028;2024-03-08T00:27:37;26.27;;;9.45;;
63492;SDS011;49638;47.526;10.028;2024-03-08T00:30:38;23.42;;;9.25;;
63492;SDS011;49638;47.526;10.028;2024-03-08T00:33:38;31.08;;;10.98;;
63492;SDS011;49638;47.526;10.028;2024-03-08T00:36:39;23.00;;;8.90;;
63492;SDS011;49638;47.526;10.028;2024-03-08T00:39:39;13.55;;;6.60;;
63492;SDS011;49638;47.526;10.028;2024-03-08T00:42:40;15.25;;;7.05;;
63492;SDS011;49638;47.526;10.028;2024-03-08T00:45:41;14.50;;;7.10;;
63492;SDS011;49638;47.526;10.028;2024-03-08T00:48:44;11.73;;;5.55;;
63492;SDS011;49638;47.526;10.028;2024-03-08T00:51:44;16.00;;;6.68;;
63492;SDS011;49638;47.526;10.028;2024-03-08T00:54:44;16.27;;;6.57;;
63492;SDS011;49638;47.526;10.028;2024-03-08T00:57:45;16.42;;;7.28;;
63492;SDS011;49638;47.526;10.028;2024-03-08T01:00:45;15.85;;;7.07;;
63492;SDS011;49638;47.526;10.028;2024-03-08T01:03:45;16.38;;;7.60;;
63492;SDS011;49638;47.526;10.028;2024-03-08T01:06:46;17.98;;;7.57;;
63492;SDS011;49638;47.526;10.028;2024-03-08T01:09:47;18.67;;;7.10;;
63492;SDS011;49638;47.526;10.028;2024-03-08T01:12:47;16.98;;;7.68;;
63492;SDS011;49638;47.526;10.028;2024-03-08T01:15:47;15.52;;;6.97;;
63492;SDS011;49638;47.526;10.028;2024-03-08T01:18:47;16.33;;;7.10;;
63492;SDS011;49638;47.526;10.028;2024-03-08T01:21:48;15.38;;;6.65;;
63492;SDS011;49638;47.526;10.028;2024-03-08T01:24:48;14.80;;;6.55;;
63492;SDS011;49638;47.526;10.028;2024-03-08T01:27:48;15.35;;;6.72;;
63492;SDS011;49638;47.526;10.028;2024-03-08T01:30:49;18.55;;;7.47;;
63492;SDS011;49638;47.526;10.028;2024-03-08T01:33:50;17.17;;;7.15;;
63492;SDS011;49638;47.526;10.028;2024-03-08T01:36:50;16.48;;;7.30;;
63492;SDS011;49638;47.526;10.028;2024-03-08T01:39:50;13.50;;;6.88;;
63492;SDS011;49638;47.526;10.028;2024-03-08T01:42:51;13.52;;;7.00;;
63492;SDS011;49638;47.526;10.028;2024-03-08T01:45:51;14.18;;;6.55;;
63492;SDS011;49638;47.526;10.028;2024-03-08T01:48:51;15.98;;;6.47;;
63492;SDS011;49638;47.526;10.028;2024-03-08T01:51:52;12.57;;;5.70;;
63492;SDS011;49638;47.526;10.028;2024-03-08T01:54:52;16.33;;;6.70;;
63492;SDS011;49638;47.526;10.028;2024-03-08T01:57:53;12.13;;;5.25;;
63492;SDS011;49638;47.526;10.028;2024-03-08T02:00:53;14.95;;;6.65;;
63492;SDS011;49638;47.526;10.028;2024-03-08T02:03:55;13.45;;;6.00;;
63492;SDS011;49638;47.526;10.028;2024-03-08T02:06:56;14.98;;;6.60;;
63492;SDS011;49638;47.526;10.028;2024-03-08T02:09:58;15.25;;;6.70;;
63492;SDS011;49638;47.526;10.028;2024-03-08T02:12:58;15.65;;;7.13;;
63492;SDS011;49638;47.526;10.028;2024-03-08T02:15:59;15.02;;;6.57;;
63492;SDS011;49638;47.526;10.028;2024-03-08T02:19:00;13.38;;;6.40;;
63492;SDS011;49638;47.526;10.028;2024-03-08T02:22:00;13.50;;;6.75;;
63492;SDS011;49638;47.526;10.028;2024-03-08T02:25:04;16.83;;;7.60;;
63492;SDS011;49638;47.526;10.028;2024-03-08T02:31:10;15.93;;;7.00;;
63492;SDS011;49638;47.526;10.028;2024-03-08T02:34:10;16.75;;;7.18;;
63492;SDS011;49638;47.526;10.028;2024-03-08T02:37:10;13.30;;;6.63;;
63492;SDS011;49638;47.526;10.028;2024-03-08T02:40:11;13.93;;;6.43;;
63492;SDS011;49638;47.526;10.028;2024-03-08T02:43:12;16.00;;;6.78;;
63492;SDS011;49638;47.526;10.028;2024-03-08T02:46:14;17.85;;;7.05;;
63492;SDS011;49638;47.526;10.028;2024-03-08T02:49:15;17.02;;;7.50;;
63492;SDS011;49638;47.526;10.028;2024-03-08T02:52:16;15.75;;;7.10;;
63492;SDS011;49638;47.526;10.028;2024-03-08T02:55:16;15.82;;;7.10;;
63492;SDS011;49638;47.526;10.028;2024-03-08T02:58:16;16.27;;;7.28;;
63492;SDS011;49638;47.526;10.028;2024-03-08T03:01:17;14.18;;;6.68;;
63492;SDS011;49638;47.526;10.028;2024-03-08T03:04:20;15.50;;;6.20;;
63492;SDS011;49638;47.526;10.028;2024-03-08T03:07:20;13.40;;;5.97;;
63492;SDS011;49638;47.526;10.028;2024-03-08T03:10:20;13.25;;;6.22;;
63492;SDS011;49638;47.526;10.028;2024-03-08T03:13:21;15.63;;;7.10;;
63492;SDS011;49638;47.526;10.028;2024-03-08T03:16:22;14.40;;;6.25;;
63492;SDS011;49638;47.526;10.028;2024-03-08T03:19:22;19.88;;;8.13;;
63492;SDS011;49638;47.526;10.028;2024-03-08T03:22:23;16.92;;;7.57;;
63492;SDS011;49638;47.526;10.028;2024-03-08T03:25:25;18.58;;;8.13;;
63492;SDS011;49638;47.526;10.028;2024-03-08T03:28:28;19.48;;;8.10;;
63492;SDS011;49638;47.526;10.028;2024-03-08T03:31:29;17.15;;;7.70;;
63492;SDS011;49638;47.526;10.028;2024-03-08T03:34:30;17.20;;;7.95;;
63492;SDS011;49638;47.526;10.028;2024-03-08T03:37:30;14.88;;;7.93;;
63492;SDS011;49638;47.526;10.028;2024-03-08T03:40:30;21.00;;;8.00;;
63492;SDS011;49638;47.526;10.028;2024-03-08T03:43:31;15.63;;;7.35;;
63492;SDS011;49638;47.526;10.028;2024-03-08T03:46:32;13.40;;;6.63;;
63492;SDS011;49638;47.526;10.028;2024-03-08T03:49:33;15.43;;;6.32;;
63492;SDS011;49638;47.526;10.028;2024-03-08T03:52:33;13.60;;;6.03;;
63492;SDS011;49638;47.526;10.028;2024-03-08T03:55:34;14.65;;;6.15;;
63492;SDS011;49638;47.526;10.028;2024-03-08T03:58:34;14.07;;;6.25;;
63492;SDS011;49638;47.526;10.028;2024-03-08T04:01:34;15.02;;;6.47;;
63492;SDS011;49638;47.526;10.028;2024-03-08T04:04:35;11.60;;;5.60;;
63492;SDS011;49638;47.526;10.028;2024-03-08T04:07:35;15.13;;;5.55;;
63492;SDS011;49638;47.526;10.028;2024-03-08T04:10:36;12.70;;;6.40;;
63492;SDS011;49638;47.526;10.028;2024-03-08T04:13:36;12.93;;;5.72;;
63492;SDS011;49638;47.526;10.028;2024-03-08T04:16:37;13.00;;;5.82;;
63492;SDS011;49638;47.526;10.028;2024-03-08T04:19:38;18.70;;;6.80;;
63492;SDS011;49638;47.526;10.028;2024-03-08T04:22:39;19.83;;;7.50;;
63492;SDS011;49638;47.526;10.028;2024-03-08T04:25:39;19.50;;;7.22;;
63492;SDS011;49638;47.526;10.028;2024-03-08T04:28:43;13.57;;;6.57;;
63492;SDS011;49638;47.526;10.028;2024-03-08T04:31:43;15.50;;;6.22;;
63492;SDS011;49638;47.526;10.028;2024-03-08T04:34:44;14.23;;;6.28;;
63492;SDS011;49638;47.526;10.028;2024-03-08T04:37:44;13.68;;;5.53;;
63492;SDS011;49638;47.526;10.028;2024-03-08T04:40:45;13.23;;;5.88;;
63492;SDS011;49638;47.526;10.028;2024-03-08T04:43:45;12.15;;;5.35;;
63492;SDS011;49638;47.526;10.028;2024-03-08T04:46:45;12.25;;;5.20;;
63492;SDS011;49638;47.526;10.028;2024-03-08T04:49:46;12.70;;;5.57;;
63492;SDS011;49638;47.526;10.028;2024-03-08T04:52:47;12.50;;;5.35;;
63492;SDS011;49638;47.526;10.028;2024-03-08T04:55:48;9.70;;;4.97;;
63492;SDS011;49638;47.526;10.028;2024-03-08T04:58:48;11.52;;;5.30;;
63492;SDS011;49638;47.526;10.028;2024-03-08T05:01:48;13.63;;;5.70;;
63492;SDS011;49638;47.526;10.028;2024-03-08T05:04:48;11.30;;;5.82;;
63492;SDS011;49638;47.526;10.028;2024-03-08T05:07:49;11.23;;;5.70;;
63492;SDS011;49638;47.526;10.028;2024-03-08T05:10:49;12.57;;;5.53;;
63492;SDS011;49638;47.526;10.028;2024-03-08T05:13:49;14.68;;;5.68;;
63492;SDS011;49638;47.526;10.028;2024-03-08T05:16:50;14.38;;;6.32;;
63492;SDS011;49638;47.526;10.028;2024-03-08T05:19:50;12.98;;;5.97;;
63492;SDS011;49638;47.526;10.028;2024-03-08T05:22:51;15.52;;;5.80;;
63492;SDS011;49638;47.526;10.028;2024-03-08T05:25:51;12.60;;;5.90;;
63492;SDS011;49638;47.526;10.028;2024-03-08T05:28:52;10.68;;;4.90;;
63492;SDS011;49638;47.526;10.028;2024-03-08T05:31:52;10.75;;;4.88;;
63492;SDS011;49638;47.526;10.028;2024-03-08T05:34:52;12.65;;;4.82;;
63492;SDS011;49638;47.526;10.028;2024-03-08T05:37:52;11.60;;;5.10;;
63492;SDS011;49638;47.526;10.028;2024-03-08T05:40:53;9.75;;;4.22;;
63492;SDS011;49638;47.526;10.028;2024-03-08T05:43:54;8.00;;;4.10;;
63492;SDS011;49638;47.526;10.028;2024-03-08T05:46:54;9.45;;;4.47;;
63492;SDS011;49638;47.526;10.028;2024-03-08T05:49:56;8.98;;;4.57;;
63492;SDS011;49638;47.526;10.028;2024-03-08T05:52:56;8.43;;;4.15;;
63492;SDS011;49638;47.526;10.028;2024-03-08T05:55:57;10.05;;;4.68;;
63492;SDS011;49638;47.526;10.028;2024-03-08T05:58:58;10.50;;;4.93;;
63492;SDS011;49638;47.526;10.028;2024-03-08T06:01:59;9.98;;;4.78;;
63492;SDS011;49638;47.526;10.028;2024-03-08T06:04:59;8.30;;;4.13;;
63492;SDS011;49638;47.526;10.028;2024-03-08T06:08:02;8.18;;;4.18;;
63492;SDS011;49638;47.526;10.028;2024-03-08T06:11:02;6.28;;;3.58;;
63492;SDS011;49638;47.526;10.028;2024-03-08T06:14:02;8.65;;;3.47;;
63492;SDS011;49638;47.526;10.028;2024-03-08T06:17:03;8.05;;;3.20;;
63492;SDS011;49638;47.526;10.028;2024-03-08T06:20:07;10.52;;;4.40;;
63492;SDS011;49638;47.526;10.028;2024-03-08T06:26:11;5.88;;;2.70;;
63492;SDS011;49638;47.526;10.028;2024-03-08T06:29:11;5.68;;;2.78;;
63492;SDS011;49638;47.526;10.028;2024-03-08T06:32:12;6.45;;;3.13;;
63492;SDS011;49638;47.526;10.028;2024-03-08T06:35:15;5.97;;;3.37;;
63492;SDS011;49638;47.526;10.028;2024-03-08T06:38:16;9.85;;;3.92;;
63492;SDS011;49638;47.526;10.028;2024-03-08T06:41:17;9.60;;;4.30;;
63492;SDS011;49638;47.526;10.028;2024-03-08T06:44:17;9.32;;;4.50;;
63492;SDS011;49638;47.526;10.028;2024-03-08T06:47:17;8.98;;;4.25;;
63492;SDS011;49638;47.526;10.028;2024-03-08T06:50:18;9.68;;;4.38;;
63492;SDS011;49638;47.526;10.028;2024-03-08T06:53:18;7.68;;;3.90;;
63492;SDS011;49638;47.526;10.028;2024-03-08T06:56:19;8.27;;;4.53;;
63492;SDS011;49638;47.526;10.028;2024-03-08T06:59:19;9.82;;;4.65;;
63492;SDS011;49638;47.526;10.028;2024-03-08T07:02:20;9.25;;;4.30;;
63492;SDS011;49638;47.526;10.028;2024-03-08T07:05:24;6.53;;;3.67;;
63492;SDS011;49638;47.526;10.028;2024-03-08T07:08:25;7.50;;;3.95;;
63492;SDS011;49638;47.526;10.028;2024-03-08T07:11:26;7.75;;;4.38;;
63492;SDS011;49638;47.526;10.028;2024-03-08T07:14:27;8.95;;;4.63;;
63492;SDS011;49638;47.526;10.028;2024-03-08T07:17:27;8.93;;;4.25;;
63492;SDS011;49638;47.526;10.028;2024-03-08T07:20:27;7.50;;;4.18;;
63492;SDS011;49638;47.526;10.028;2024-03-08T07:23:28;8.48;;;4.68;;
63492;SDS011;49638;47.526;10.028;2024-03-08T07:26:53;9.80;;;5.85;;
63492;SDS011;49638;47.526;10.028;2024-03-08T07:29:55;9.40;;;4.53;;
63492;SDS011;49638;47.526;10.028;2024-03-08T07:32:56;7.85;;;4.63;;
63492;SDS011;49638;47.526;10.028;2024-03-08T07:35:56;9.32;;;4.55;;
63492;SDS011;49638;47.526;10.028;2024-03-08T07:38:56;11.57;;;4.30;;
63492;SDS011;49638;47.526;10.028;2024-03-08T07:41:57;7.35;;;3.65;;
63492;SDS011;49638;47.526;10.028;2024-03-08T07:44:57;4.80;;;3.00;;
63492;SDS011;49638;47.526;10.028;2024-03-08T07:47:58;11.02;;;2.13;;
63492;SDS011;49638;47.526;10.028;2024-03-08T07:50:58;4.35;;;2.42;;
63492;SDS011;49638;47.526;10.028;2024-03-08T07:53:58;4.53;;;2.33;;
63492;SDS011;49638;47.526;10.028;2024-03-08T07:57:00;6.40;;;2.72;;
63492;SDS011;49638;47.526;10.028;2024-03-08T08:00:02;6.78;;;2.80;;
63492;SDS011;49638;47.526;10.028;2024-03-08T08:03:07;8.60;;;3.08;;
63492;SDS011;49638;47.526;10.028;2024-03-08T08:06:08;5.45;;;2.70;;
63492;SDS011;49638;47.526;10.028;2024-03-08T08:09:08;4.60;;;2.25;;
63492;SDS011;49638;47.526;10.028;2024-03-08T08:12:14;4.95;;;2.42;;
63492;SDS011;49638;47.526;10.028;2024-03-08T08:15:14;4.00;;;2.28;;
63492;SDS011;49638;47.526;10.028;2024-03-08T08:18:15;4.13;;;2.38;;
63492;SDS011;49638;47.526;10.028;2024-03-08T08:21:15;4.15;;;2.42;;
63492;SDS011;49638;47.526;10.028;2024-03-08T08:24:15;3.28;;;2.40;;
63492;SDS011;49638;47.526;10.028;2024-03-08T08:27:15;7.10;;;3.30;;
63492;SDS011;49638;47.526;10.028;2024-03-08T08:30:16;6.68;;;2.97;;
63492;SDS011;49638;47.526;10.028;2024-03-08T08:33:16;5.40;;;3.40;;
63492;SDS011;49638;47.526;10.028;2024-03-08T08:36:16;5.30;;;3.13;;
63492;SDS011;49638;47.526;10.028;2024-03-08T08:39:18;6.28;;;3.17;;
63492;SDS011;49638;47.526;10.028;2024-03-08T08:42:19;7.88;;;3.60;;
63492;SDS011;49638;47.526;10.028;2024-03-08T08:45:19;5.38;;;3.22;;
63492;SDS011;49638;47.526;10.028;2024-03-08T08:48:19;6.05;;;3.30;;
63492;SDS011;49638;47.526;10.028;2024-03-08T08:51:20;7.15;;;3.33;;
63492;SDS011;49638;47.526;10.028;2024-03-08T08:54:20;5.93;;;3.65;;
63492;SDS011;49638;47.526;10.028;2024-03-08T08:57:21;7.50;;;3.80;;
63492;SDS011;49638;47.526;10.028;2024-03-08T09:00:22;8.05;;;3.80;;
63492;SDS011;49638;47.526;10.028;2024-03-08T09:03:27;5.75;;;3.15;;
63492;SDS011;49638;47.526;10.028;2024-03-08T09:06:28;8.10;;;3.25;;
63492;SDS011;49638;47.526;10.028;2024-03-08T09:09:29;5.68;;;3.47;;
63492;SDS011;49638;47.526;10.028;2024-03-08T09:12:30;8.18;;;3.85;;
63492;SDS011;49638;47.526;10.028;2024-03-08T09:15:32;6.15;;;3.50;;
63492;SDS011;49638;47.526;10.028;2024-03-08T09:18:32;5.85;;;3.63;;
63492;SDS011;49638;47.526;10.028;2024-03-08T09:21:33;6.85;;;4.13;;
63492;SDS011;49638;47.526;10.028;2024-03-08T09:24:34;12.50;;;4.03;;
63492;SDS011;49638;47.526;10.028;2024-03-08T09:27:35;8.70;;;3.95;;
63492;SDS011;49638;47.526;10.028;2024-03-08T09:30:35;7.60;;;3.70;;
63492;SDS011;49638;47.526;10.028;2024-03-08T09:33:37;7.20;;;4.03;;
63492;SDS011;49638;47.526;10.028;2024-03-08T09:36:39;9.38;;;5.28;;
63492;SDS011;49638;47.526;10.028;2024-03-08T09:39:41;13.32;;;6.10;;
63492;SDS011;49638;47.526;10.028;2024-03-08T09:42:41;7.43;;;4.57;;
63492;SDS011;49638;47.526;10.028;2024-03-08T09:45:42;11.00;;;5.78;;
63492;SDS011;49638;47.526;10.028;2024-03-08T09:48:46;9.82;;;5.25;;
63492;SDS011;49638;47.526;10.028;2024-03-08T09:51:46;12.13;;;5.55;;
63492;SDS011;49638;47.526;10.028;2024-03-08T09:54:47;10.23;;;5.72;;
63492;SDS011;49638;47.526;10.028;2024-03-08T09:57:47;10.93;;;6.10;;
63492;SDS011;49638;47.526;10.028;2024-03-08T10:01:08;11.02;;;5.25;;
63492;SDS011;49638;47.526;10.028;2024-03-08T10:04:08;10.85;;;6.30;;
63492;SDS011;49638;47.526;10.028;2024-03-08T10:07:10;9.30;;;5.18;;
63492;SDS011;49638;47.526;10.028;2024-03-08T10:10:12;8.63;;;4.53;;
63492;SDS011;49638;47.526;10.028;2024-03-08T10:13:12;6.65;;;4.07;;
63492;SDS011;49638;47.526;10.028;2024-03-08T10:16:13;7.35;;;3.88;;
63492;SDS011;49638;47.526;10.028;2024-03-08T10:19:14;7.85;;;3.70;;
63492;SDS011;49638;47.526;10.028;2024-03-08T10:22:15;7.88;;;3.78;;
63492;SDS011;49638;47.526;10.028;2024-03-08T10:25:16;7.68;;;3.60;;
63492;SDS011;49638;47.526;10.028;2024-03-08T10:28:17;6.78;;;3.50;;
63492;SDS011;49638;47.526;10.028;2024-03-08T10:31:18;7.22;;;2.95;;
63492;SDS011;49638;47.526;10.028;2024-03-08T10:34:19;10.88;;;5.95;;
63492;SDS011;49638;47.526;10.028;2024-03-08T10:37:21;5.80;;;3.40;;
63492;SDS011;49638;47.526;10.028;2024-03-08T10:40:22;7.57;;;3.58;;
63492;SDS011;49638;47.526;10.028;2024-03-08T10:43:25;10.10;;;3.50;;
63492;SDS011;49638;47.526;10.028;2024-03-08T10:46:29;5.25;;;3.20;;
63492;SDS011;49638;47.526;10.028;2024-03-08T10:49:37;6.80;;;3.08;;
63492;SDS011;49638;47.526;10.028;2024-03-08T10:52:39;5.97;;;3.75;;
63492;SDS011;49638;47.526;10.028;2024-03-08T10:55:40;7.90;;;3.58;;
63492;SDS011;49638;47.526;10.028;2024-03-08T10:58:41;5.68;;;3.30;;
63492;SDS011;49638;47.526;10.028;2024-03-08T11:01:44;6.90;;;3.13;;
63492;SDS011;49638;47.526;10.028;2024-03-08T11:04:48;5.57;;;2.85;;
63492;SDS011;49638;47.526;10.028;2024-03-08T11:07:50;8.77;;;3.17;;
63492;SDS011;49638;47.526;10.028;2024-03-08T11:10:51;9.00;;;3.13;;
63492;SDS011;49638;47.526;10.028;2024-03-08T11:13:54;6.97;;;3.25;;
63492;SDS011;49638;47.526;10.028;2024-03-08T11:16:55;5.45;;;3.10;;
63492;SDS011;49638;47.526;10.028;2024-03-08T11:19:56;4.47;;;2.70;;
63492;SDS011;49638;47.526;10.028;2024-03-08T11:23:00;3.45;;;2.25;;
63492;SDS011;49638;47.526;10.028;2024-03-08T11:26:03;7.13;;;2.47;;
63492;SDS011;49638;47.526;10.028;2024-03-08T11:32:35;3.40;;;2.40;;
63492;SDS011;49638;47.526;10.028;2024-03-08T11:35:36;3.65;;;2.47;;
63492;SDS011;49638;47.526;10.028;2024-03-08T11:38:40;3.95;;;2.80;;
63492;SDS011;49638;47.526;10.028;2024-03-08T11:41:42;4.55;;;2.33;;
63492;SDS011;49638;47.526;10.028;2024-03-08T11:44:45;6.00;;;2.40;;
63492;SDS011;49638;47.526;10.028;2024-03-08T11:47:47;4.53;;;2.03;;
63492;SDS011;49638;47.526;10.028;2024-03-08T11:50:51;3.42;;;2.03;;
63492;SDS011;49638;47.526;10.028;2024-03-08T11:53:59;4.05;;;2.13;;
63492;SDS011;49638;47.526;10.028;2024-03-08T11:57:00;2.38;;;1.98;;
63492;SDS011;49638;47.526;10.028;2024-03-08T12:00:00;5.72;;;2.08;;
63492;SDS011;49638;47.526;10.028;2024-03-08T12:03:07;6.80;;;2.15;;
63492;SDS011;49638;47.526;10.028;2024-03-08T12:06:12;4.53;;;2.15;;
63492;SDS011;49638;47.526;10.028;2024-03-08T12:09:15;3.95;;;2.20;;
63492;SDS011;49638;47.526;10.028;2024-03-08T12:12:16;3.83;;;2.35;;
63492;SDS011;49638;47.526;10.028;2024-03-08T12:15:17;3.95;;;2.55;;
63492;SDS011;49638;47.526;10.028;2024-03-08T12:18:21;5.25;;;2.38;;
63492;SDS011;49638;47.526;10.028;2024-03-08T12:21:21;4.85;;;2.10;;
63492;SDS011;49638;47.526;10.028;2024-03-08T12:24:23;5.57;;;2.25;;
63492;SDS011;49638;47.526;10.028;2024-03-08T12:27:24;6.38;;;2.67;;
63492;SDS011;49638;47.526;10.028;2024-03-08T12:30:29;7.25;;;2.90;;
63492;SDS011;49638;47.526;10.028;2024-03-08T12:33:33;3.20;;;2.45;;
63492;SDS011;49638;47.526;10.028;2024-03-08T12:36:34;8.38;;;2.97;;
63492;SDS011;49638;47.526;10.028;2024-03-08T12:39:36;3.90;;;2.70;;
63492;SDS011;49638;47.526;10.028;2024-03-08T12:42:37;8.68;;;2.83;;
63492;SDS011;49638;47.526;10.028;2024-03-08T12:45:38;7.65;;;2.95;;
63492;SDS011;49638;47.526;10.028;2024-03-08T12:48:39;3.58;;;2.15;;
63492;SDS011;49638;47.526;10.028;2024-03-08T12:51:40;4.93;;;2.42;;
63492;SDS011;49638;47.526;10.028;2024-03-08T12:54:41;4.05;;;2.50;;
63492;SDS011;49638;47.526;10.028;2024-03-08T12:57:42;4.15;;;2.55;;
63492;SDS011;49638;47.526;10.028;2024-03-08T13:00:43;5.13;;;2.65;;
63492;SDS011;49638;47.526;10.028;2024-03-08T13:03:43;6.10;;;2.35;;
63492;SDS011;49638;47.526;10.028;2024-03-08T13:06:43;4.25;;;2.40;;
63492;SDS011;49638;47.526;10.028;2024-03-08T13:09:46;3.10;;;2.22;;
63492;SDS011;49638;47.526;10.028;2024-03-08T13:12:47;3.75;;;2.33;;
63492;SDS011;49638;47.526;10.028;2024-03-08T13:15:47;4.70;;;2.50;;
63492;SDS011;49638;47.526;10.028;2024-03-08T13:18:48;6.18;;;2.53;;
63492;SDS011;49638;47.526;10.028;2024-03-08T13:21:49;4.97;;;3.45;;
63492;SDS011;49638;47.526;10.028;2024-03-08T13:24:49;7.95;;;3.85;;
63492;SDS011;49638;47.526;10.028;2024-03-08T13:27:49;6.00;;;3.38;;
63492;SDS011;49638;47.526;10.028;2024-03-08T13:30:50;6.65;;;3.67;;
63492;SDS011;49638;47.526;10.028;2024-03-08T13:33:50;7.95;;;3.42;;
63492;SDS011;49638;47.526;10.028;2024-03-08T13:36:57;5.18;;;2.95;;
63492;SDS011;49638;47.526;10.028;2024-03-08T13:40:00;5.47;;;3.40;;
63492;SDS011;49638;47.526;10.028;2024-03-08T13:43:00;6.93;;;3.28;;
63492;SDS011;49638;47.526;10.028;2024-03-08T13:46:00;7.88;;;3.65;;
63492;SDS011;49638;47.526;10.028;2024-03-08T13:49:04;4.95;;;3.30;;
63492;SDS011;49638;47.526;10.028;2024-03-08T13:52:10;8.27;;;4.80;;
63492;SDS011;49638;47.526;10.028;2024-03-08T13:55:12;6.28;;;3.50;;
63492;SDS011;49638;47.526;10.028;2024-03-08T13:58:13;6.70;;;4.18;;
63492;SDS011;49638;47.526;10.028;2024-03-08T14:01:13;7.95;;;4.20;;
63492;SDS011;49638;47.526;10.028;2024-03-08T14:04:14;8.93;;;5.00;;
63492;SDS011;49638;47.526;10.028;2024-03-08T14:07:16;8.13;;;4.95;;
63492;SDS011;49638;47.526;10.028;2024-03-08T14:10:17;9.25;;;5.30;;
63492;SDS011;49638;47.526;10.028;2024-03-08T14:13:22;9.07;;;5.60;;
63492;SDS011;49638;47.526;10.028;2024-03-08T14:16:23;8.55;;;5.32;;
63492;SDS011;49638;47.526;10.028;2024-03-08T14:19:24;9.05;;;5.63;;
63492;SDS011;49638;47.526;10.028;2024-03-08T14:22:24;10.98;;;7.18;;
63492;SDS011;49638;47.526;10.028;2024-03-08T14:25:25;10.52;;;5.38;;
63492;SDS011;49638;47.526;10.028;2024-03-08T14:28:25;10.63;;;5.20;;
63492;SDS011;49638;47.526;10.028;2024-03-08T14:31:27;9.85;;;5.50;;
63492;SDS011;49638;47.526;10.028;2024-03-08T14:34:28;9.75;;;5.10;;
63492;SDS011;49638;47.526;10.028;2024-03-08T14:37:29;9.02;;;5.20;;
63492;SDS011;49638;47.526;10.028;2024-03-08T14:40:29;7.50;;;4.53;;
63492;SDS011;49638;47.526;10.028;2024-03-08T14:43:30;7.40;;;4.90;;
63492;SDS011;49638;47.526;10.028;2024-03-08T14:46:33;11.20;;;5.50;;
63492;SDS011;49638;47.526;10.028;2024-03-08T14:49:33;12.65;;;7.20;;
63492;SDS011;49638;47.526;10.028;2024-03-08T14:52:36;9.60;;;5.88;;
63492;SDS011;49638;47.526;10.028;2024-03-08T14:55:39;8.02;;;4.88;;
63492;SDS011;49638;47.526;10.028;2024-03-08T14:58:39;9.27;;;4.30;;
63492;SDS011;49638;47.526;10.028;2024-03-08T15:01:39;10.90;;;6.05;;
63492;SDS011;49638;47.526;10.028;2024-03-08T15:04:42;11.95;;;7.25;;
63492;SDS011;49638;47.526;10.028;2024-03-08T15:07:43;12.43;;;5.90;;
63492;SDS011;49638;47.526;10.028;2024-03-08T15:10:43;11.07;;;6.78;;
63492;SDS011;49638;47.526;10.028;2024-03-08T15:13:44;13.18;;;7.47;;
63492;SDS011;49638;47.526;10.028;2024-03-08T15:16:46;15.48;;;7.70;;
63492;SDS011;49638;47.526;10.028;2024-03-08T15:19:49;13.73;;;7.63;;
63492;SDS011;49638;47.526;10.028;2024-03-08T15:22:49;12.70;;;7.88;;
63492;SDS011;49638;47.526;10.028;2024-03-08T15:25:52;13.88;;;7.25;;
63492;SDS011;49638;47.526;10.028;2024-03-08T15:28:52;14.00;;;6.78;;
63492;SDS011;49638;47.526;10.028;2024-03-08T15:31:54;14.18;;;7.45;;
63492;SDS011;49638;47.526;10.028;2024-03-08T15:34:54;11.98;;;7.22;;
63492;SDS011;49638;47.526;10.028;2024-03-08T15:37:55;13.88;;;6.95;;
63492;SDS011;49638;47.526;10.028;2024-03-08T15:40:58;13.50;;;7.63;;
63492;SDS011;49638;47.526;10.028;2024-03-08T15:43:58;14.30;;;7.20;;
63492;SDS011;49638;47.526;10.028;2024-03-08T15:46:59;14.30;;;7.53;;
63492;SDS011;49638;47.526;10.028;2024-03-08T15:50:00;14.52;;;8.20;;
63492;SDS011;49638;47.526;10.028;2024-03-08T15:53:03;17.27;;;8.68;;
63492;SDS011;49638;47.526;10.028;2024-03-08T15:56:06;14.52;;;7.97;;
63492;SDS011;49638;47.526;10.028;2024-03-08T15:59:08;15.35;;;9.18;;
63492;SDS011;49638;47.526;10.028;2024-03-08T16:02:08;18.15;;;9.23;;
63492;SDS011;49638;47.526;10.028;2024-03-08T16:05:08;20.25;;;9.75;;
63492;SDS011;49638;47.526;10.028;2024-03-08T16:08:15;17.98;;;9.93;;
63492;SDS011;49638;47.526;10.028;2024-03-08T16:11:17;20.25;;;10.48;;
63492;SDS011;49638;47.526;10.028;2024-03-08T16:14:18;18.95;;;10.48;;
63492;SDS011;49638;47.526;10.028;2024-03-08T16:17:20;23.42;;;10.80;;
63492;SDS011;49638;47.526;10.028;2024-03-08T16:20:20;19.90;;;11.00;;
63492;SDS011;49638;47.526;10.028;2024-03-08T16:23:23;19.42;;;10.02;;
63492;SDS011;49638;47.526;10.028;2024-03-08T16:26:24;19.73;;;10.55;;
63492;SDS011;49638;47.526;10.028;2024-03-08T16:29:25;19.73;;;10.93;;
63492;SDS011;49638;47.526;10.028;2024-03-08T16:32:26;22.27;;;11.23;;
63492;SDS011;49638;47.526;10.028;2024-03-08T16:35:26;22.85;;;11.50;;
63492;SDS011;49638;47.526;10.028;2024-03-08T16:38:26;26.85;;;12.45;;
63492;SDS011;49638;47.526;10.028;2024-03-08T16:41:26;34.35;;;16.05;;
63492;SDS011;49638;47.526;10.028;2024-03-08T16:44:27;29.92;;;14.68;;
63492;SDS011;49638;47.526;10.028;2024-03-08T16:47:27;24.98;;;13.15;;
63492;SDS011;49638;47.526;10.028;2024-03-08T16:50:27;27.52;;;13.80;;
63492;SDS011;49638;47.526;10.028;2024-03-08T16:53:31;26.42;;;14.05;;
63492;SDS011;49638;47.526;10.028;2024-03-08T16:56:34;26.27;;;12.95;;
63492;SDS011;49638;47.526;10.028;2024-03-08T16:59:38;26.10;;;13.50;;
63492;SDS011;49638;47.526;10.028;2024-03-08T17:02:38;25.40;;;12.98;;
63492;SDS011;49638;47.526;10.028;2024-03-08T17:05:38;36.50;;;16.05;;
63492;SDS011;49638;47.526;10.028;2024-03-08T17:08:44;45.00;;;17.70;;
63492;SDS011;49638;47.526;10.028;2024-03-08T17:11:45;35.55;;;15.50;;
63492;SDS011;49638;47.526;10.028;2024-03-08T17:14:48;23.58;;;10.88;;
63492;SDS011;49638;47.526;10.028;2024-03-08T17:17:49;21.08;;;11.00;;
63492;SDS011;49638;47.526;10.028;2024-03-08T17:20:50;20.67;;;11.45;;
63492;SDS011;49638;47.526;10.028;2024-03-08T17:23:50;21.67;;;9.70;;
63492;SDS011;49638;47.526;10.028;2024-03-08T17:26:51;20.92;;;11.32;;
63492;SDS011;49638;47.526;10.028;2024-03-08T17:29:51;28.30;;;14.80;;
63492;SDS011;49638;47.526;10.028;2024-03-08T17:33:01;20.95;;;11.20;;
63492;SDS011;49638;47.526;10.028;2024-03-08T17:36:14;14.23;;;8.10;;
63492;SDS011;49638;47.526;10.028;2024-03-08T17:39:16;19.13;;;9.35;;
63492;SDS011;49638;47.526;10.028;2024-03-08T17:42:19;15.03;;;7.97;;
63492;SDS011;49638;47.526;10.028;2024-03-08T17:45:19;9.93;;;6.15;;
63492;SDS011;49638;47.526;10.028;2024-03-08T17:48:20;13.65;;;8.85;;
63492;SDS011;49638;47.526;10.028;2024-03-08T17:51:21;17.15;;;10.52;;
63492;SDS011;49638;47.526;10.028;2024-03-08T17:54:22;65.07;;;23.60;;